Terminal Aerodrome Forecast
Issued by NWS

Home | Current Version | Previous Version | Text Only | Print | Product List | Glossary On
Versions: 1 2 3 4 5 6 7 8 9 10 11 12 13 14 15 16 17
000
FTUS41 KLWX 301121
TAFMTN
TAF
KMTN 301121Z 3012/3112 20004KT P6SM BKN025
     FM301500 16008KT 5SM SHRA VCTS BKN035CB
     FM301800 16006KT P6SM -SHRA VCTS BKN060CB
     FM302300 13007KT 5SM SHRA VCTS OVC045CB
     FM310300 14007KT 6SM -SHRA VCTS OVC045CB
     FM310600 10004KT P6SM OVC050=

USA.gov is the U.S. government's official web portal to all federal, state and local government web resources and services.